Time;durP1;ratioP1;P1;durP2;ratioP2;P2;SDS_P1;SDS_P2;PMS_P1;PMS_P2;Temp;Humidity;BMP_temperature;BMP_pressure;BME280_temperature;BME280_humidity;BME280_pressure;Samples;Min_cycle;Max_cycle;Signal;HPM_P1;HPM_P2
2022/07/26 00:01:42;;;;;;;2.63;1.63;;;;;;;25.06;45.24;97061.75;4989958;28;20058;-75
2022/07/26 00:04:08;;;;;;;2.35;1.50;;;;;;;25.08;45.53;97064.06;4990474;28;20089;-75
2022/07/26 00:06:33;;;;;;;2.22;1.17;;;;;;;25.03;45.39;97062.44;4990996;28;20093;-75
2022/07/26 00:08:59;;;;;;;2.22;1.05;;;;;;;24.99;45.63;97069.56;4990344;28;20089;-75
2022/07/26 00:11:25;;;;;;;1.92;1.10;;;;;;;24.92;45.76;97072.06;4990262;28;20086;-75
2022/07/26 00:13:51;;;;;;;2.20;1.15;;;;;;;24.89;45.84;97068.16;4994435;28;20066;-75
2022/07/26 00:16:17;;;;;;;1.10;1.05;;;;;;;24.88;46.20;97068.50;4993094;28;20505;-75
2022/07/26 00:18:43;;;;;;;2.05;1.52;;;;;;;24.81;46.59;97077.06;5009489;28;20320;-75
2022/07/26 00:21:08;;;;;;;1.13;1.02;;;;;;;24.79;47.01;97081.97;5009615;28;20485;-75
2022/07/26 00:23:34;;;;;;;1.70;1.50;;;;;;;24.69;47.46;97083.22;5009611;28;20034;-75
2022/07/26 00:25:59;;;;;;;2.00;1.05;;;;;;;24.65;48.03;97091.13;5009257;28;20136;-75
2022/07/26 00:28:25;;;;;;;2.25;1.17;;;;;;;24.57;48.13;97102.69;4993217;28;20029;-75
2022/07/26 00:30:50;;;;;;;1.80;1.10;;;;;;;24.53;48.48;97101.78;5010801;28;20091;-75
2022/07/26 00:33:16;;;;;;;1.67;0.90;;;;;;;24.46;48.55;97105.00;4992888;28;20033;-75
2022/07/26 00:35:41;;;;;;;1.50;1.20;;;;;;;24.43;48.54;97104.91;4976811;28;20165;-75
2022/07/26 00:38:07;;;;;;;2.58;1.30;;;;;;;24.37;48.88;97101.72;5009000;28;20250;-75
2022/07/26 00:40:32;;;;;;;1.85;1.10;;;;;;;24.34;49.06;97101.63;5010392;28;20033;-75
2022/07/26 00:42:58;;;;;;;1.13;1.02;;;;;;;24.28;49.21;97093.88;5009353;28;20034;-75
2022/07/26 00:45:23;;;;;;;1.90;1.13;;;;;;;24.24;49.09;97103.63;4991639;28;20034;-75
2022/07/26 00:47:49;;;;;;;3.20;1.50;;;;;;;24.20;49.60;97108.06;4989990;28;20034;-75
2022/07/26 00:50:15;;;;;;;1.83;1.17;;;;;;;24.14;49.59;97111.28;4989535;28;20117;-75
2022/07/26 00:52:42;;;;;;;1.50;1.08;;;;;;;24.12;49.88;97107.06;4989634;28;20046;-75
2022/07/26 00:55:08;;;;;;;1.60;1.00;;;;;;;24.10;50.26;97114.63;4989451;28;20038;-75
2022/07/26 00:57:35;;;;;;;3.28;0.90;;;;;;;24.03;50.13;97114.41;4972555;28;20157;-75
2022/07/26 01:00:09;;;;;;;3.65;1.25;;;;;;;23.88;50.29;97112.41;4989358;28;20033;-75
2022/07/26 01:02:34;;;;;;;1.88;1.15;;;;;;;24.03;50.38;97114.41;4989173;28;20045;-75
2022/07/26 01:05:00;;;;;;;2.17;1.50;;;;;;;24.00;50.03;97122.28;4989157;28;20042;-75
2022/07/26 01:07:25;;;;;;;2.45;1.13;;;;;;;24.08;49.70;97119.50;4988657;28;20042;-75
2022/07/26 01:09:51;;;;;;;1.48;1.05;;;;;;;24.04;50.06;97121.28;4972911;28;20041;-75
2022/07/26 01:12:17;;;;;;;1.63;1.13;;;;;;;23.95;49.41;97123.25;4989215;28;20058;-74
2022/07/26 01:14:43;;;;;;;2.05;1.10;;;;;;;23.96;49.16;97130.16;5000139;28;20038;-74
2022/07/26 01:17:10;;;;;;;1.73;1.30;;;;;;;23.97;48.90;97122.94;4991903;28;20053;-75
2022/07/26 01:19:35;;;;;;;4.10;1.20;;;;;;;23.97;48.50;97123.69;4991963;28;20048;-75
2022/07/26 01:22:00;;;;;;;1.73;1.40;;;;;;;24.01;47.90;97121.16;5008610;28;20030;-74
2022/07/26 01:24:26;;;;;;;1.80;1.55;;;;;;;23.97;47.73;97123.69;4992231;28;20044;-75
2022/07/26 01:26:51;;;;;;;2.38;1.60;;;;;;;23.99;47.66;97129.50;5008053;28;20088;-75
2022/07/26 01:29:17;;;;;;;3.40;2.10;;;;;;;23.92;47.70;97134.56;5008543;28;20259;-75
2022/07/26 01:31:42;;;;;;;2.28;1.45;;;;;;;23.88;47.61;97131.03;4992062;28;20048;-75
2022/07/26 01:34:07;;;;;;;3.28;1.23;;;;;;;23.78;47.50;97134.09;4991991;28;20453;-75
2022/07/26 01:36:33;;;;;;;2.78;1.30;;;;;;;23.81;47.66;97141.41;5007820;28;20026;-75
2022/07/26 01:38:58;;;;;;;2.65;1.67;;;;;;;23.72;47.92;97129.00;5009488;28;20034;-75
2022/07/26 01:41:24;;;;;;;1.30;1.20;;;;;;;23.74;47.91;97140.06;5009572;28;20065;-75
2022/07/26 01:43:49;;;;;;;1.65;1.20;;;;;;;23.70;47.95;97136.53;4971067;28;20029;-75
2022/07/26 01:46:14;;;;;;;2.83;1.30;;;;;;;23.54;48.07;97138.28;4989375;28;20072;-75
2022/07/26 01:48:40;;;;;;;2.25;1.70;;;;;;;23.47;48.33;97132.72;4987723;28;20467;-75
2022/07/26 01:51:06;;;;;;;2.83;1.40;;;;;;;23.38;48.69;97130.16;4972405;28;20034;-75
2022/07/26 01:53:31;;;;;;;2.10;1.23;;;;;;;23.27;48.53;97140.44;4988427;28;20502;-75
2022/07/26 01:55:57;;;;;;;2.83;1.45;;;;;;;23.15;48.81;97141.19;4972140;28;20064;-75
2022/07/26 01:58:22;;;;;;;1.85;1.30;;;;;;;23.07;49.30;97146.56;4988545;28;20031;-75
2022/07/26 02:00:48;;;;;;;1.95;1.40;;;;;;;22.96;49.67;97144.28;4988427;28;20069;-75
2022/07/26 02:03:13;;;;;;;2.35;1.30;;;;;;;22.88;49.43;97139.81;4972715;28;20041;-75
2022/07/26 02:05:39;;;;;;;2.08;1.63;;;;;;;22.85;49.82;97142.34;4971865;28;20034;-75
2022/07/26 02:08:04;;;;;;;1.67;1.42;;;;;;;22.81;49.79;97139.59;4989757;28;20473;-75
2022/07/26 02:13:16;;;;;;;1.75;1.48;;;;;;;22.68;50.79;97144.03;4988727;28;20045;-75
2022/07/26 02:15:41;;;;;;;1.73;1.25;;;;;;;22.65;50.44;97143.91;5007008;28;20042;-75
2022/07/26 02:18:07;;;;;;;3.13;1.70;;;;;;;22.65;50.76;97144.69;5008766;28;20459;-75
2022/07/26 02:20:32;;;;;;;3.22;1.33;;;;;;;22.63;50.64;97142.34;5007914;28;20038;-75
2022/07/26 02:23:00;;;;;;;1.83;1.67;;;;;;;22.57;50.90;97145.53;5007786;28;20708;-75
2022/07/26 02:25:25;;;;;;;2.63;1.40;;;;;;;22.58;51.17;97145.19;5007639;28;20040;-75
2022/07/26 02:27:51;;;;;;;2.47;1.40;;;;;;;22.51;51.16;97150.25;5007434;28;20030;-75
2022/07/26 02:30:16;;;;;;;2.97;1.40;;;;;;;22.47;50.82;97146.69;4991579;28;20041;-75
2022/07/26 02:32:44;;;;;;;2.25;1.35;;;;;;;22.42;51.10;97152.19;5007881;28;20049;-75
2022/07/26 02:35:10;;;;;;;1.45;1.35;;;;;;;22.36;51.62;97154.25;5008957;28;20033;-75
2022/07/26 02:37:35;;;;;;;2.33;1.30;;;;;;;22.31;51.90;97156.31;5008567;28;20041;-75
2022/07/26 02:40:03;;;;;;;2.28;1.50;;;;;;;22.22;51.93;97153.66;5011021;28;20036;-75
2022/07/26 02:42:28;;;;;;;2.50;1.63;;;;;;;22.28;51.76;97149.78;4978959;28;20092;-75
2022/07/26 02:44:54;;;;;;;2.15;1.25;;;;;;;22.26;51.45;97144.75;5008015;28;20231;-75
2022/07/26 02:47:19;;;;;;;1.30;1.20;;;;;;;22.22;51.65;97154.44;4992341;28;20069;-75
2022/07/26 02:49:45;;;;;;;2.55;1.40;;;;;;;22.23;51.65;97142.75;5008456;28;20030;-75
2022/07/26 02:52:10;;;;;;;2.05;1.27;;;;;;;22.24;51.84;97146.16;4992890;28;20451;-75
2022/07/26 02:54:39;;;;;;;3.35;2.15;;;;;;;22.14;52.03;97147.34;5008004;28;20128;-75
2022/07/26 02:57:04;;;;;;;3.20;2.03;;;;;;;22.23;51.82;97150.69;5007510;28;20034;-75
2022/07/26 02:59:32;;;;;;;3.05;1.50;;;;;;;22.21;51.78;97147.59;4991423;28;20050;-75
2022/07/26 03:01:57;;;;;;;1.70;1.35;;;;;;;22.24;51.94;97143.50;4992743;28;20437;-75
2022/07/26 03:04:23;;;;;;;1.95;1.35;;;;;;;22.27;51.71;97148.19;4992844;28;20038;-75
2022/07/26 03:06:48;;;;;;;3.08;1.40;;;;;;;22.29;51.80;97148.66;4991081;28;20062;-75
2022/07/26 03:09:14;;;;;;;2.17;1.20;;;;;;;22.30;51.62;97150.22;4991466;28;20034;-75
2022/07/26 03:11:39;;;;;;;2.83;1.50;;;;;;;22.26;52.33;97152.72;4991566;28;20069;-75
2022/07/26 03:14:05;;;;;;;2.63;1.55;;;;;;;22.23;51.96;97148.06;5010680;28;20037;-75
2022/07/26 03:16:30;;;;;;;2.10;1.02;;;;;;;22.24;52.14;97143.50;5011687;28;20038;-75
2022/07/26 03:18:56;;;;;;;2.00;1.42;;;;;;;22.20;52.42;97146.03;5010597;28;20091;-75
2022/07/26 03:21:24;;;;;;;4.18;1.30;;;;;;;22.20;52.29;97147.91;5010751;28;20398;-75
2022/07/26 03:23:49;;;;;;;1.73;1.63;;;;;;;22.21;52.33;97152.13;5010758;28;20034;-75
2022/07/26 03:26:14;;;;;;;2.80;1.55;;;;;;;22.16;52.52;97152.31;5010402;28;20370;-75
2022/07/26 03:28:41;;;;;;;3.15;1.67;;;;;;;22.15;52.54;97148.88;5010837;28;20030;-75
2022/07/26 03:31:07;;;;;;;1.95;1.50;;;;;;;22.18;52.18;97148.22;5010310;28;20034;-75
2022/07/26 03:33:32;;;;;;;2.40;1.85;;;;;;;22.18;51.87;97142.94;5011817;28;20539;-75
2022/07/26 03:35:57;;;;;;;1.73;1.40;;;;;;;22.17;51.81;97146.66;5009931;28;20037;-75
2022/07/26 03:38:23;;;;;;;1.67;1.40;;;;;;;22.17;51.74;97148.56;5010441;28;20234;-75
2022/07/26 03:40:48;;;;;;;2.92;1.40;;;;;;;22.06;51.74;97145.50;5010256;28;20196;-75
2022/07/26 03:43:13;;;;;;;2.65;1.80;;;;;;;22.05;51.44;97150.03;5011609;28;20053;-75
2022/07/26 03:45:40;;;;;;;4.22;1.40;;;;;;;22.01;51.38;97151.75;4958038;28;20483;-75
2022/07/26 03:48:06;;;;;;;2.67;1.60;;;;;;;22.03;51.11;97151.44;4974282;28;20037;-75
2022/07/26 03:50:31;;;;;;;2.47;1.67;;;;;;;22.03;51.09;97148.78;4990163;28;20422;-75
2022/07/26 03:52:56;;;;;;;4.13;1.83;;;;;;;22.05;51.03;97146.56;4991943;28;20034;-75
2022/07/26 03:58:06;;;;;;;3.67;1.70;;;;;;;21.91;51.23;97149.44;4990969;28;20046;-74
2022/07/26 04:00:31;;;;;;;2.28;1.30;;;;;;;21.93;50.87;97149.13;4990296;28;20038;-74
2022/07/26 04:02:56;;;;;;;2.50;1.35;;;;;;;21.89;51.01;97154.31;4990678;28;20039;-75
2022/07/26 04:05:22;;;;;;;2.70;1.55;;;;;;;21.88;50.63;97148.22;4990159;28;20509;-74
2022/07/26 04:07:47;;;;;;;5.90;1.27;;;;;;;21.89;50.32;97141.81;4991854;28;20409;-75
2022/07/26 04:10:14;;;;;;;1.92;1.30;;;;;;;21.79;50.92;97136.88;4990288;28;20399;-75
2022/07/26 04:12:40;;;;;;;2.22;1.17;;;;;;;21.85;50.59;97134.84;4990496;28;20030;-75
2022/07/26 04:15:06;;;;;;;3.17;1.20;;;;;;;21.81;50.54;97142.63;4988095;28;20375;-75
2022/07/26 04:17:38;;;;;;;3.97;1.40;;;;;;;21.66;50.40;97143.16;4992469;28;20038;-75
2022/07/26 04:20:06;;;;;;;2.15;1.05;;;;;;;21.78;50.24;97142.50;4977022;28;20041;-75
2022/07/26 04:22:31;;;;;;;1.88;1.13;;;;;;;21.73;49.67;97154.06;5009574;28;20080;-75
2022/07/26 04:24:56;;;;;;;1.38;0.88;;;;;;;21.75;49.55;97157.16;4993342;28;20437;-75
2022/07/26 04:27:22;;;;;;;3.00;1.00;;;;;;;21.79;49.01;97150.13;5010325;28;20461;-74
2022/07/26 04:29:47;;;;;;;2.97;0.88;;;;;;;21.84;48.65;97157.13;4977127;28;20030;-74
2022/07/26 04:32:12;;;;;;;2.65;1.20;;;;;;;21.78;48.73;97161.03;5009725;28;20061;-75
2022/07/26 04:34:38;;;;;;;2.22;0.75;;;;;;;21.81;48.53;97161.19;4992969;28;20088;-75
2022/07/26 04:37:03;;;;;;;2.45;1.00;;;;;;;21.78;48.60;97159.19;5010651;28;20040;-75
2022/07/26 04:39:28;;;;;;;1.70;0.90;;;;;;;21.75;48.70;97167.75;5009134;28;20117;-74
2022/07/26 04:41:54;;;;;;;2.45;1.00;;;;;;;21.70;48.87;97165.28;5010657;28;20371;-75
2022/07/26 04:44:19;;;;;;;1.63;0.82;;;;;;;21.73;48.70;97169.97;5001382;28;20069;-75
2022/07/26 04:46:44;;;;;;;4.10;1.17;;;;;;;21.71;49.15;97174.78;5005513;28;20049;-75
2022/07/26 04:49:10;;;;;;;1.60;0.95;;;;;;;21.76;48.67;97182.56;4957110;28;20034;-75
2022/07/26 04:51:35;;;;;;;2.08;0.93;;;;;;;21.74;48.63;97182.09;4989497;28;20035;-75
2022/07/26 04:54:00;;;;;;;1.60;0.93;;;;;;;21.71;48.82;97177.44;4990802;28;20453;-75
2022/07/26 04:56:26;;;;;;;1.70;0.82;;;;;;;21.75;48.67;97177.59;4989881;28;20390;-74
2022/07/26 04:58:51;;;;;;;2.90;1.35;;;;;;;21.82;48.28;97189.25;4989050;28;20173;-74
2022/07/26 05:01:16;;;;;;;1.30;0.70;;;;;;;21.85;48.34;97182.56;5003799;28;20040;-75
2022/07/26 05:03:42;;;;;;;3.38;0.95;;;;;;;21.81;48.62;97182.38;5004726;28;20046;-74
2022/07/26 05:06:07;;;;;;;2.88;1.02;;;;;;;21.79;48.46;97189.09;5004170;28;20565;-75
2022/07/26 05:08:32;;;;;;;4.70;1.13;;;;;;;21.74;48.86;97192.69;4971761;28;20492;-74
2022/07/26 05:10:58;;;;;;;2.80;1.05;;;;;;;21.74;48.55;97186.63;4988177;28;20041;-75
2022/07/26 05:13:23;;;;;;;3.55;0.82;;;;;;;21.77;48.93;97191.31;5004984;28;20034;-75
2022/07/26 05:15:49;;;;;;;3.97;0.88;;;;;;;21.75;48.63;97202.22;5007436;28;20034;-75
2022/07/26 05:18:14;;;;;;;2.17;1.27;;;;;;;21.81;48.39;97200.16;4991284;28;20053;-75
2022/07/26 05:20:39;;;;;;;2.10;0.65;;;;;;;21.82;48.66;97207.81;5008745;28;20108;-75
2022/07/26 05:23:05;;;;;;;0.82;0.82;;;;;;;21.86;48.61;97211.38;4975013;28;20029;-75
2022/07/26 05:25:31;;;;;;;0.95;0.70;;;;;;;21.87;48.36;97214.81;5008194;28;20231;-75
2022/07/26 05:27:56;;;;;;;3.15;0.82;;;;;;;21.80;48.58;97214.53;4974932;28;20026;-74
2022/07/26 05:30:22;;;;;;;2.13;0.90;;;;;;;21.82;48.50;97213.09;5007460;28;20317;-75
2022/07/26 05:32:47;;;;;;;1.13;0.63;;;;;;;21.94;48.22;97219.63;5007255;28;20068;-74
2022/07/26 05:35:12;;;;;;;2.28;0.98;;;;;;;21.87;48.27;97212.94;4990976;28;20438;-75
2022/07/26 05:37:38;;;;;;;1.52;1.05;;;;;;;21.88;48.05;97214.50;5007309;28;20347;-74
2022/07/26 05:40:04;;;;;;;4.65;0.73;;;;;;;21.83;48.21;97214.66;5007000;28;20077;-75
2022/07/26 05:42:30;;;;;;;1.02;0.60;;;;;;;21.84;48.48;97213.56;4974575;28;20034;-74
2022/07/26 05:44:55;;;;;;;0.82;0.68;;;;;;;21.91;48.13;97221.03;4977336;28;20038;-74
2022/07/26 05:47:20;;;;;;;2.72;0.82;;;;;;;21.93;48.03;97210.09;4987359;28;20041;-74
2022/07/26 05:49:46;;;;;;;0.88;0.68;;;;;;;21.94;48.58;97215.09;4988623;28;20035;-74
2022/07/26 05:52:12;;;;;;;1.10;0.60;;;;;;;21.82;48.05;97205.16;4988669;28;20034;-74
2022/07/26 05:54:37;;;;;;;1.35;0.75;;;;;;;21.88;48.19;97209.19;4988445;28;20523;-74
2022/07/26 05:57:03;;;;;;;3.35;0.88;;;;;;;21.91;48.45;97207.78;4971941;28;20117;-74
2022/07/26 05:59:28;;;;;;;2.25;0.80;;;;;;;21.88;49.09;97213.69;4988270;28;20352;-75
2022/07/26 06:01:55;;;;;;;2.60;0.90;;;;;;;21.94;48.26;97214.34;4988471;28;20034;-75
2022/07/26 06:04:22;;;;;;;1.58;0.73;;;;;;;21.99;48.30;97208.84;4972200;28;20023;-75
2022/07/26 06:06:47;;;;;;;1.38;0.73;;;;;;;22.03;48.10;97212.41;4972014;28;20508;-75
2022/07/26 06:09:13;;;;;;;1.55;0.65;;;;;;;21.92;48.70;97209.34;5004799;28;20026;-75
2022/07/26 06:11:38;;;;;;;3.70;0.93;;;;;;;22.02;48.58;97211.66;4988179;28;20031;-75
2022/07/26 06:14:03;;;;;;;1.85;0.60;;;;;;;22.19;47.73;97215.31;4981723;28;20435;-75
2022/07/26 06:16:29;;;;;;;3.92;0.60;;;;;;;22.21;47.95;97219.22;4995047;28;20374;-75
2022/07/26 06:18:54;;;;;;;1.70;1.10;;;;;;;22.08;48.33;97212.25;5011838;28;20060;-74
2022/07/26 06:21:19;;;;;;;2.55;0.73;;;;;;;22.13;48.51;97213.94;4995366;28;20037;-75
2022/07/26 06:23:45;;;;;;;1.35;0.50;;;;;;;22.23;48.01;97210.94;5012176;28;20508;-75
2022/07/26 06:26:11;;;;;;;1.48;0.50;;;;;;;22.30;47.89;97218.41;5011466;28;20499;-74
2022/07/26 06:28:38;;;;;;;2.08;0.70;;;;;;;22.31;47.72;97209.34;4979215;28;20022;-74
2022/07/26 06:31:03;;;;;;;2.75;0.60;;;;;;;22.39;47.65;97216.50;4979799;28;20033;-74
2022/07/26 06:33:29;;;;;;;2.58;0.73;;;;;;;22.38;47.25;97220.22;4978742;28;20034;-74
2022/07/26 06:35:54;;;;;;;1.45;1.00;;;;;;;22.35;47.66;97220.91;5011439;28;20029;-75
2022/07/26 06:38:20;;;;;;;2.10;0.82;;;;;;;22.38;47.77;97225.53;5011391;28;20045;-74
2022/07/26 06:40:45;;;;;;;1.23;0.82;;;;;;;22.50;47.30;97222.19;5011695;28;20034;-74
2022/07/26 06:43:11;;;;;;;1.83;0.80;;;;;;;22.50;47.76;97215.03;5012720;28;20504;-74
2022/07/26 06:45:36;;;;;;;1.15;0.63;;;;;;;22.94;46.45;97223.47;5007691;28;20026;-74
2022/07/26 06:48:02;;;;;;;1.92;0.77;;;;;;;22.76;47.27;97224.72;5007897;28;20080;-74
2022/07/26 06:50:27;;;;;;;1.88;0.77;;;;;;;23.17;46.14;97226.63;5008241;28;20496;-75
2022/07/26 06:52:53;;;;;;;3.25;0.88;;;;;;;23.26;46.04;97215.91;4991875;28;20030;-75
2022/07/26 06:55:18;;;;;;;2.25;0.68;;;;;;;23.37;46.05;97217.09;5007417;28;20066;-75
2022/07/26 06:57:43;;;;;;;1.77;0.82;;;;;;;23.71;44.66;97217.81;5008281;28;20109;-75
2022/07/26 07:00:10;;;;;;;2.28;0.93;;;;;;;23.92;44.94;97227.63;4991621;28;20030;-75
2022/07/26 07:02:35;;;;;;;1.20;0.73;;;;;;;24.16;43.58;97218.91;5008234;28;20038;-75
2022/07/26 07:05:01;;;;;;;1.80;0.77;;;;;;;24.23;43.43;97232.44;4991499;28;20120;-75
2022/07/26 07:07:26;;;;;;;2.17;0.90;;;;;;;24.25;43.42;97232.13;5007393;28;20037;-75
2022/07/26 07:09:52;;;;;;;1.58;0.80;;;;;;;24.44;42.61;97229.66;5007962;28;20326;-75
2022/07/26 07:12:17;;;;;;;1.88;1.10;;;;;;;24.64;42.97;97237.88;4991385;28;20040;-75
2022/07/26 07:14:43;;;;;;;2.63;0.90;;;;;;;24.75;42.95;97232.91;4986555;28;20040;-75
2022/07/26 07:17:09;;;;;;;2.30;0.80;;;;;;;25.00;41.54;97238.91;4994048;28;20037;-75
2022/07/26 07:19:35;;;;;;;3.40;1.00;;;;;;;25.12;41.72;97238.13;4994234;28;20053;-75
2022/07/26 07:22:02;;;;;;;3.40;1.10;;;;;;;25.09;41.46;97234.25;4978355;28;20493;-75
2022/07/26 07:24:27;;;;;;;1.90;0.90;;;;;;;25.20;41.46;97223.88;5009812;28;20172;-75
2022/07/26 07:26:52;;;;;;;4.65;1.05;;;;;;;25.23;41.30;97221.31;5010187;28;20499;-75
2022/07/26 07:29:19;;;;;;;2.50;0.85;;;;;;;25.51;40.78;97228.53;5011976;28;20041;-75
2022/07/26 07:31:46;;;;;;;2.97;1.13;;;;;;;25.68;40.33;97230.13;5010801;28;20402;-74
2022/07/26 07:34:16;;;;;;;1.30;1.00;;;;;;;25.93;39.78;97235.34;5011741;28;20563;-75
2022/07/26 07:36:42;;;;;;;2.20;0.90;;;;;;;26.09;39.62;97224.69;4993538;28;20563;-75
2022/07/26 07:39:07;;;;;;;2.20;0.90;;;;;;;26.24;39.16;97229.22;4994216;28;20463;-75
2022/07/26 07:41:33;;;;;;;2.42;1.20;;;;;;;26.26;39.06;97231.56;4993857;28;20037;-74
2022/07/26 07:43:59;;;;;;;1.35;1.17;;;;;;;26.38;38.35;97231.47;5004415;28;20026;-75
2022/07/26 07:46:25;;;;;;;1.33;0.90;;;;;;;26.60;38.18;97232.72;4990251;28;20034;-75
2022/07/26 07:48:50;;;;;;;1.98;0.95;;;;;;;26.45;38.38;97234.28;4991635;28;20034;-75
2022/07/26 07:51:16;;;;;;;1.67;1.13;;;;;;;26.53;37.88;97241.34;4990811;28;20053;-74
2022/07/26 07:53:41;;;;;;;1.42;0.90;;;;;;;26.61;37.83;97236.91;4991667;28;20030;-75
2022/07/26 07:56:07;;;;;;;1.33;1.17;;;;;;;26.48;37.72;97235.50;4990209;28;20053;-75
2022/07/26 07:58:32;;;;;;;1.65;1.40;;;;;;;26.72;37.58;97240.63;4991577;28;20041;-75
2022/07/26 08:00:58;;;;;;;1.42;0.80;;;;;;;26.70;38.21;97237.53;4974398;28;20060;-75
2022/07/26 08:03:23;;;;;;;5.32;1.10;;;;;;;26.62;37.96;97241.19;4991571;28;20121;-75
2022/07/26 08:05:48;;;;;;;1.40;1.10;;;;;;;26.47;38.26;97241.94;4991185;28;20062;-74
2022/07/26 08:08:15;;;;;;;1.88;0.95;;;;;;;26.31;38.64;97245.41;4974439;28;20081;-75
2022/07/26 08:10:40;;;;;;;2.65;1.30;;;;;;;26.19;39.17;97237.50;4990241;28;20282;-74
2022/07/26 08:13:06;;;;;;;2.50;1.10;;;;;;;26.30;38.87;97243.88;4990486;28;20389;-74
2022/07/26 08:15:31;;;;;;;2.15;1.20;;;;;;;26.27;39.15;97241.09;5007248;28;20026;-75
2022/07/26 08:17:56;;;;;;;3.05;1.40;;;;;;;26.21;39.27;97243.25;5009376;28;20038;-75
2022/07/26 08:20:22;;;;;;;1.55;1.10;;;;;;;26.03;39.89;97255.41;5009916;28;20034;-74
2022/07/26 08:22:47;;;;;;;2.67;1.17;;;;;;;26.24;38.74;97244.50;4993490;28;20137;-74
2022/07/26 08:25:13;;;;;;;1.55;1.20;;;;;;;26.55;38.62;97246.34;5010633;28;20037;-75
2022/07/26 08:27:38;;;;;;;3.00;1.20;;;;;;;26.69;38.04;97253.91;5010914;28;20053;-75
2022/07/26 08:30:04;;;;;;;2.50;1.15;;;;;;;26.93;38.30;97252.13;4977184;28;20022;-75
2022/07/26 08:32:30;;;;;;;1.73;1.00;;;;;;;26.97;38.16;97244.97;5009545;28;20037;-75
2022/07/26 08:34:55;;;;;;;2.78;1.20;;;;;;;27.25;37.54;97244.78;5009240;28;20037;-75
2022/07/26 08:37:21;;;;;;;1.92;1.27;;;;;;;27.57;36.11;97242.72;5009205;28;20046;-74
2022/07/26 08:39:47;;;;;;;2.30;1.10;;;;;;;27.74;35.93;97246.81;5009342;28;20100;-75
2022/07/26 08:42:17;;;;;;;2.72;1.33;;;;;;;27.62;35.42;97245.13;4993177;28;20103;-75
2022/07/26 08:44:44;;;;;;;2.17;1.00;;;;;;;27.59;36.17;97245.03;5006173;28;20026;-75
2022/07/26 08:47:14;;;;;;;1.60;0.90;;;;;;;27.92;35.74;97246.41;4989076;28;20525;-75
2022/07/26 08:49:40;;;;;;;2.35;0.98;;;;;;;28.04;34.97;97254.25;4989798;28;20346;-75
2022/07/26 08:52:06;;;;;;;1.73;1.45;;;;;;;28.00;35.11;97258.75;4989703;28;20034;-75
2022/07/26 08:54:32;;;;;;;1.17;1.05;;;;;;;28.16;34.61;97259.44;4990649;28;20049;-75
2022/07/26 08:56:58;;;;;;;1.45;1.10;;;;;;;28.23;34.90;97258.00;4988967;28;20424;-75
2022/07/26 08:59:23;;;;;;;1.48;1.15;;;;;;;27.96;34.88;97261.38;4990735;28;20030;-75
2022/07/26 09:01:53;;;;;;;1.63;1.17;;;;;;;27.68;35.63;97258.19;4989299;28;20048;-75
2022/07/26 09:04:21;;;;;;;2.88;1.30;;;;;;;27.73;35.25;97255.22;4989607;28;20033;-75
2022/07/26 09:06:56;;;;;;;1.48;1.23;;;;;;;27.98;35.07;97255.69;4972557;28;20030;-75
2022/07/26 09:09:22;;;;;;;1.42;1.05;;;;;;;28.21;35.25;97259.13;4989254;28;20049;-75
2022/07/26 09:11:47;;;;;;;1.63;1.08;;;;;;;28.36;35.07;97254.78;4989505;28;20035;-75
2022/07/26 09:14:13;;;;;;;2.97;1.48;;;;;;;28.52;33.30;97259.22;4996530;28;20385;-75
2022/07/26 09:16:38;;;;;;;1.30;1.00;;;;;;;28.48;33.94;97258.38;5008383;28;20044;-75
2022/07/26 09:19:20;;;;;;;1.58;1.30;;;;;;;28.42;34.00;97260.59;4991665;28;20402;-75
2022/07/26 09:21:45;;;;;;;1.75;1.15;;;;;;;28.65;33.95;97259.78;5008866;28;20038;-75
2022/07/26 09:24:11;;;;;;;1.60;1.50;;;;;;;28.39;34.29;97263.97;5008385;28;20095;-75
2022/07/26 09:26:37;;;;;;;2.60;1.33;;;;;;;28.04;33.60;97264.19;5008579;28;20022;-75
2022/07/26 09:29:03;;;;;;;1.48;1.38;;;;;;;27.75;35.10;97266.34;4975856;28;20022;-75
2022/07/26 09:31:29;;;;;;;2.22;1.38;;;;;;;27.25;35.82;97258.91;4992169;28;20042;-75
2022/07/26 09:33:54;;;;;;;3.15;1.50;;;;;;;26.95;36.67;97272.03;5008493;28;20473;-75
2022/07/26 09:36:20;;;;;;;3.45;1.45;;;;;;;26.82;36.40;97268.72;5008843;28;20030;-75
2022/07/26 09:38:54;;;;;;;2.33;1.70;;;;;;;26.65;36.74;97277.13;5008472;28;20034;-75
2022/07/26 09:41:25;;;;;;;2.45;1.42;;;;;;;26.71;36.68;97279.16;5008082;28;20045;-74
2022/07/26 09:43:51;;;;;;;2.20;1.60;;;;;;;26.83;35.83;97274.81;5004877;28;20034;-75
2022/07/26 09:46:17;;;;;;;1.60;1.48;;;;;;;26.56;35.41;97281.81;5004583;28;20041;-74
2022/07/26 09:48:43;;;;;;;1.40;1.30;;;;;;;26.48;36.12;97278.22;5004366;28;20068;-75
2022/07/26 09:51:09;;;;;;;1.77;1.30;;;;;;;26.49;36.07;97274.41;5005103;28;20466;-75
2022/07/26 09:53:45;;;;;;;1.52;1.42;;;;;;;26.66;36.50;97276.75;5004833;28;20104;-75
2022/07/26 09:56:11;;;;;;;3.05;1.42;;;;;;;27.34;35.66;97274.75;5004224;28;20035;-75
2022/07/26 09:58:37;;;;;;;2.88;1.40;;;;;;;27.09;35.14;97291.06;5004626;28;20080;-75
2022/07/26 10:01:06;;;;;;;1.73;1.40;;;;;;;26.69;36.21;97285.97;4972362;28;20037;-75
2022/07/26 10:03:33;;;;;;;3.13;1.60;;;;;;;27.05;35.85;97287.50;4988356;28;20026;-75
2022/07/26 10:06:01;;;;;;;1.73;1.10;;;;;;;26.96;35.73;97289.63;5004471;28;20320;-75
2022/07/26 10:08:27;;;;;;;2.67;1.27;;;;;;;26.97;36.27;97290.38;4989515;28;20038;-75
2022/07/26 10:11:05;;;;;;;2.15;1.40;;;;;;;27.19;35.92;97283.59;4988309;28;20034;-75
2022/07/26 10:13:30;;;;;;;3.42;1.33;;;;;;;27.57;35.56;97285.53;5006100;28;20554;-75
2022/07/26 10:15:56;;;;;;;2.65;1.30;;;;;;;27.80;34.86;97284.78;5008511;28;20112;-75
2022/07/26 10:18:37;;;;;;;2.05;1.00;;;;;;;27.78;33.93;97289.72;5007648;28;20034;-75
2022/07/26 10:21:14;;;;;;;2.30;1.20;;;;;;;27.68;34.41;97283.03;5008998;28;20057;-75
2022/07/26 10:24:08;;;;;;;1.70;1.25;;;;;;;27.43;34.59;97286.00;5009216;28;20034;-75
2022/07/26 10:26:36;;;;;;;1.30;1.20;;;;;;;27.94;33.88;97273.59;5005209;28;20044;-75
2022/07/26 10:29:17;;;;;;;2.28;1.30;;;;;;;28.00;33.76;97264.13;4975435;28;20022;-75
2022/07/26 10:31:45;;;;;;;3.40;1.30;;;;;;;27.95;34.49;97267.09;5009300;28;20034;-75
2022/07/26 10:34:28;;;;;;;2.67;1.30;;;;;;;27.37;35.06;97271.38;5007391;28;20091;-75
2022/07/26 10:36:59;;;;;;;2.35;1.20;;;;;;;27.84;34.30;97273.00;4991341;28;20124;-75
2022/07/26 10:39:24;;;;;;;1.60;1.20;;;;;;;28.30;33.98;97271.50;5007490;28;20117;-75
2022/07/26 10:42:09;;;;;;;1.27;1.17;;;;;;;28.62;32.29;97266.66;5007768;28;20493;-75
2022/07/26 10:44:40;;;;;;;3.45;1.33;;;;;;;28.83;32.41;97260.81;5004168;28;20397;-75
2022/07/26 10:47:06;;;;;;;1.65;1.40;;;;;;;29.06;32.01;97262.63;4987687;28;20057;-75
2022/07/26 10:49:40;;;;;;;2.33;1.20;;;;;;;29.28;32.55;97267.13;4988933;28;20069;-75
2022/07/26 10:52:11;;;;;;;2.25;1.20;;;;;;;29.85;31.96;97258.16;5004449;28;20080;-75
2022/07/26 10:54:55;;;;;;;1.73;1.60;;;;;;;29.60;30.26;97265.97;4989404;28;20066;-75
2022/07/26 10:57:26;;;;;;;2.35;1.40;;;;;;;29.20;31.09;97262.84;5004375;28;20235;-75
2022/07/26 10:59:51;;;;;;;1.67;1.30;;;;;;;29.31;30.32;97258.38;4957262;28;20037;-75
2022/07/26 11:02:21;;;;;;;1.55;1.20;;;;;;;29.59;30.12;97265.19;4991520;28;20042;-75
2022/07/26 11:04:48;;;;;;;1.35;1.05;;;;;;;30.11;29.24;97256.47;4991178;28;20420;-75
2022/07/26 11:07:14;;;;;;;1.50;1.40;;;;;;;30.44;29.32;97256.38;4991351;28;20088;-75
2022/07/26 11:09:39;;;;;;;2.33;1.58;;;;;;;30.47;29.37;97248.69;4991552;28;20038;-75
2022/07/26 11:12:31;;;;;;;1.35;1.25;;;;;;;30.62;28.96;97255.72;4975125;28;20034;-75
2022/07/26 11:14:58;;;;;;;2.30;1.42;;;;;;;30.61;29.08;97251.50;4992213;28;20384;-75
2022/07/26 11:17:27;;;;;;;1.65;1.25;;;;;;;30.54;28.19;97248.78;5010741;28;20567;-75
2022/07/26 11:19:53;;;;;;;1.80;0.80;;;;;;;30.46;28.52;97247.19;5010948;28;20093;-75
2022/07/26 11:22:19;;;;;;;1.20;1.10;;;;;;;30.19;29.34;97247.34;5010763;28;20038;-75
2022/07/26 11:24:44;;;;;;;2.05;1.10;;;;;;;29.99;30.33;97244.09;4994035;28;20038;-75
2022/07/26 11:27:10;;;;;;;1.58;1.17;;;;;;;30.30;29.00;97250.88;5010852;28;20041;-75
2022/07/26 11:29:36;;;;;;;1.20;1.17;;;;;;;30.55;28.06;97243.00;5010735;28;20069;-75
2022/07/26 11:32:02;;;;;;;1.42;1.17;;;;;;;30.57;29.57;97248.78;4994547;28;20033;-75
2022/07/26 11:34:31;;;;;;;1.45;1.23;;;;;;;30.94;27.95;97239.78;5011592;28;20497;-75
2022/07/26 11:36:58;;;;;;;3.15;1.20;;;;;;;30.86;27.58;97240.09;4993955;28;20065;-75